Time,TemperatureF,DewpointF,PressureIn,WindDirection,WindDirectionDegrees,WindSpeedMPH,WindSpeedGustMPH,Humidity,HourlyPrecipIn,Conditions,Clouds,dailyrainin,SoftwareType,DateUTC
2013-01-25 00:02:00,43.0,-99.9,30.06,SSE,148,5.0,6.0,-999,-99.99,,,-99.99,,2013-01-25 08:02:00,
2013-01-25 00:12:00,42.0,-99.9,30.07,South,169,4.0,5.0,-999,-99.99,,,-99.99,,2013-01-25 08:12:00,
2013-01-25 00:22:00,42.0,-99.9,30.07,South,172,5.0,6.0,-999,-99.99,,,-99.99,,2013-01-25 08:22:00,
2013-01-25 00:32:00,42.0,-99.9,30.07,SSE,162,4.0,6.0,-999,-99.99,,,-99.99,,2013-01-25 08:32:00,
2013-01-25 00:42:00,42.0,-99.9,30.06,SSE,149,4.0,6.0,-999,-99.99,,,-99.99,,2013-01-25 08:42:00,
2013-01-25 00:52:00,42.0,-99.9,30.06,SSE,159,4.0,6.0,-999,-99.99,,,-99.99,,2013-01-25 08:52:00,
2013-01-25 01:02:00,42.0,-99.9,30.06,SE,139,5.0,6.0,-999,-99.99,,,-99.99,,2013-01-25 09:02:00,
2013-01-25 01:11:00,43.0,-99.9,30.06,SE,130,5.0,8.0,-999,-99.99,,,-99.99,,2013-01-25 09:11:00,
2013-01-25 01:21:00,43.0,-99.9,30.06,ESE,105,5.0,7.0,-999,-99.99,,,-99.99,,2013-01-25 09:21:00,
2013-01-25 01:32:00,43.0,-99.9,30.06,ESE,103,6.0,8.0,-999,-99.99,,,-99.99,,2013-01-25 09:32:00,
2013-01-25 01:42:00,44.0,-99.9,30.06,ESE,103,7.0,9.0,-999,-99.99,,,-99.99,,2013-01-25 09:42:00,
2013-01-25 01:52:00,44.0,-99.9,30.06,ESE,102,8.0,10.0,-999,-99.99,,,-99.99,,2013-01-25 09:52:00,
2013-01-25 02:02:00,44.0,-99.9,30.06,ESE,106,6.0,9.0,-999,-99.99,,,-99.99,,2013-01-25 10:02:00,
2013-01-25 02:12:00,44.0,-99.9,30.05,ESE,110,5.0,7.0,-999,-99.99,,,-99.99,,2013-01-25 10:12:00,
2013-01-25 02:22:00,44.0,-99.9,30.06,ESE,114,5.0,8.0,-999,-99.99,,,-99.99,,2013-01-25 10:22:00,
2013-01-25 02:32:00,44.0,-99.9,30.06,ESE,105,6.0,8.0,-999,-99.99,,,-99.99,,2013-01-25 10:32:00,
2013-01-25 02:42:00,44.0,-99.9,30.06,ESE,103,7.0,9.0,-999,-99.99,,,-99.99,,2013-01-25 10:42:00,
2013-01-25 02:52:00,44.0,-99.9,30.06,ESE,104,5.0,9.0,-999,-99.99,,,-99.99,,2013-01-25 10:52:00,
2013-01-25 03:03:00,44.0,-99.9,30.06,ESE,119,4.0,8.0,-999,-99.99,,,-99.99,,2013-01-25 11:03:00,
2013-01-25 03:11:00,44.0,-99.9,30.06,SE,132,5.0,7.0,-999,-99.99,,,-99.99,,2013-01-25 11:11:00,
2013-01-25 03:22:00,44.0,-99.9,30.06,ESE,119,3.0,7.0,-999,-99.99,,,-99.99,,2013-01-25 11:22:00,
2013-01-25 03:33:00,44.0,-99.9,30.05,SE,130,6.0,8.0,-999,-99.99,,,-99.99,,2013-01-25 11:33:00,
2013-01-25 03:42:00,44.0,-99.9,30.05,SE,134,5.0,6.0,-999,-99.99,,,-99.99,,2013-01-25 11:42:00,
2013-01-25 03:52:00,45.0,-99.9,30.05,ESE,113,4.0,6.0,-999,-99.99,,,-99.99,,2013-01-25 11:52:00,
2013-01-25 04:03:00,45.0,-99.9,30.05,SE,124,5.0,6.0,-999,-99.99,,,-99.99,,2013-01-25 12:03:00,
2013-01-25 04:12:00,45.0,-99.9,30.05,ESE,118,4.0,7.0,-999,-99.99,,,-99.99,,2013-01-25 12:12:00,
2013-01-25 04:22:00,45.0,-99.9,30.05,ESE,123,6.0,8.0,-999,-99.99,,,-99.99,,2013-01-25 12:22:00,
2013-01-25 04:33:00,45.0,-99.9,30.05,ESE,121,5.0,8.0,-999,-99.99,,,-99.99,,2013-01-25 12:33:00,
2013-01-25 04:42:00,45.0,-99.9,30.04,SE,131,6.0,8.0,-999,-99.99,,,-99.99,,2013-01-25 12:42:00,
2013-01-25 04:53:00,45.0,-99.9,30.04,ESE,123,4.0,8.0,-999,-99.99,,,-99.99,,2013-01-25 12:53:00,
2013-01-25 05:03:00,46.0,-99.9,30.04,SE,133,4.0,6.0,-999,-99.99,,,-99.99,,2013-01-25 13:03:00,
2013-01-25 05:12:00,46.0,-99.9,30.04,ESE,115,5.0,8.0,-999,-99.99,,,-99.99,,2013-01-25 13:12:00,
2013-01-25 05:22:00,46.0,-99.9,30.04,SE,124,5.0,8.0,-999,-99.99,,,-99.99,,2013-01-25 13:22:00,
2013-01-25 05:33:00,46.0,-99.9,30.04,ESE,121,4.0,7.0,-999,-99.99,,,-99.99,,2013-01-25 13:33:00,
2013-01-25 05:43:00,46.0,-99.9,30.04,SE,130,4.0,8.0,-999,-99.99,,,-99.99,,2013-01-25 13:43:00,
2013-01-25 05:53:00,46.0,-99.9,30.05,SE,141,4.0,7.0,-999,-99.99,,,-99.99,,2013-01-25 13:53:00,
2013-01-25 06:03:00,46.0,-99.9,30.04,ESE,113,6.0,10.0,-999,-99.99,,,-99.99,,2013-01-25 14:03:00,
2013-01-25 06:13:00,46.0,-99.9,30.04,ESE,102,6.0,9.0,-999,-99.99,,,-99.99,,2013-01-25 14:13:00,
2013-01-25 06:23:00,46.0,-99.9,30.04,ESE,109,5.0,8.0,-999,-99.99,,,-99.99,,2013-01-25 14:23:00,
2013-01-25 06:33:00,47.0,-99.9,30.04,East,96,6.0,9.0,-999,-99.99,,,-99.99,,2013-01-25 14:33:00,
2013-01-25 06:42:00,47.0,-99.9,30.04,East,99,5.0,8.0,-999,-99.99,,,-99.99,,2013-01-25 14:42:00,
2013-01-25 06:53:00,47.0,-99.9,30.04,East,99,6.0,8.0,-999,-99.99,,,-99.99,,2013-01-25 14:53:00,
2013-01-25 07:03:00,47.0,-99.9,30.05,East,94,6.0,8.0,-999,-99.99,,,-99.99,,2013-01-25 15:03:00,
2013-01-25 07:13:00,47.0,-99.9,30.05,East,92,6.0,8.0,-999,-99.99,,,-99.99,,2013-01-25 15:13:00,
2013-01-25 07:23:00,47.0,-99.9,30.05,ESE,104,5.0,7.0,-999,-99.99,,,-99.99,,2013-01-25 15:23:00,
2013-01-25 07:33:00,47.0,-99.9,30.05,ESE,103,4.0,7.0,-999,-99.99,,,-99.99,,2013-01-25 15:33:00,
2013-01-25 07:43:00,47.0,-99.9,30.05,SE,132,5.0,8.0,-999,-99.99,,,-99.99,,2013-01-25 15:43:00,
2013-01-25 07:53:00,47.0,-99.9,30.05,SE,139,5.0,8.0,-999,-99.99,,,-99.99,,2013-01-25 15:53:00,
2013-01-25 08:03:00,47.0,-99.9,30.05,East,99,4.0,6.0,-999,-99.99,,,-99.99,,2013-01-25 16:03:00,
2013-01-25 08:12:00,47.0,-99.9,30.05,East,92,4.0,7.0,-999,-99.99,,,-99.99,,2013-01-25 16:12:00,
2013-01-25 08:23:00,47.0,-99.9,30.05,ESE,102,4.0,6.0,-999,-99.99,,,-99.99,,2013-01-25 16:23:00,
2013-01-25 08:33:00,47.0,-99.9,30.05,East,99,2.0,6.0,-999,-99.99,,,-99.99,,2013-01-25 16:33:00,
2013-01-25 08:43:00,47.0,-99.9,30.05,ESE,104,3.0,6.0,-999,-99.99,,,-99.99,,2013-01-25 16:43:00,
2013-01-25 08:53:00,48.0,-99.9,30.05,SE,138,3.0,5.0,-999,-99.99,,,-99.99,,2013-01-25 16:53:00,
2013-01-25 09:03:00,47.0,-99.9,30.06,West,261,1.0,4.0,-999,-99.99,,,-99.99,,2013-01-25 17:03:00,
2013-01-25 09:12:00,47.0,-99.9,30.06,NW,305,1.0,4.0,-999,-99.99,,,-99.99,,2013-01-25 17:12:00,
2013-01-25 09:22:00,47.0,-99.9,30.06,SW,221,1.0,4.0,-999,-99.99,,,-99.99,,2013-01-25 17:22:00,
2013-01-25 09:33:00,47.0,-99.9,30.06,WSW,257,3.0,4.0,-999,-99.99,,,-99.99,,2013-01-25 17:33:00,
2013-01-25 09:43:00,47.0,-99.9,30.06,SSW,212,2.0,4.0,-999,-99.99,,,-99.99,,2013-01-25 17:43:00,
2013-01-25 09:53:00,48.0,-99.9,30.06,SSE,157,0.0,2.0,-999,-99.99,,,-99.99,,2013-01-25 17:53:00,
2013-01-25 10:04:00,48.0,-99.9,30.06,West,262,2.0,8.0,-999,-99.99,,,-99.99,,2013-01-25 18:04:00,
2013-01-25 10:12:00,48.0,-99.9,30.06,South,179,3.0,4.0,-999,-99.99,,,-99.99,,2013-01-25 18:12:00,
2013-01-25 10:24:00,48.0,-99.9,30.06,SW,227,6.0,9.0,-999,-99.99,,,-99.99,,2013-01-25 18:24:00,
2013-01-25 10:33:00,48.0,-99.9,30.06,SW,233,4.0,6.0,-999,-99.99,,,-99.99,,2013-01-25 18:33:00,
2013-01-25 10:43:00,48.0,-99.9,30.06,West,262,4.0,5.0,-999,-99.99,,,-99.99,,2013-01-25 18:43:00,
2013-01-25 10:53:00,48.0,-99.9,30.06,WSW,247,2.0,4.0,-999,-99.99,,,-99.99,,2013-01-25 18:53:00,
2013-01-25 11:03:00,48.0,-99.9,30.06,SW,219,4.0,5.0,-999,-99.99,,,-99.99,,2013-01-25 19:03:00,
2013-01-25 11:12:00,48.0,-99.9,30.06,SW,234,5.0,7.0,-999,-99.99,,,-99.99,,2013-01-25 19:12:00,
2013-01-25 11:23:00,48.0,-99.9,30.06,SE,136,2.0,5.0,-999,-99.99,,,-99.99,,2013-01-25 19:23:00,
2013-01-25 11:33:00,48.0,-99.9,30.05,SSE,161,0.0,4.0,-999,-99.99,,,-99.99,,2013-01-25 19:33:00,
2013-01-25 11:43:00,48.0,-99.9,30.05,WSW,240,5.0,6.0,-999,-99.99,,,-99.99,,2013-01-25 19:43:00,
2013-01-25 11:53:00,49.0,-99.9,30.05,SW,231,0.0,2.0,-999,-99.99,,,-99.99,,2013-01-25 19:53:00,
2013-01-25 12:03:00,49.0,-99.9,30.04,South,176,0.0,2.0,-999,-99.99,,,-99.99,,2013-01-25 20:03:00,
2013-01-25 12:13:00,49.0,-99.9,30.04,SW,230,3.0,4.0,-999,-99.99,,,-99.99,,2013-01-25 20:13:00,
2013-01-25 12:23:00,49.0,-99.9,30.04,SSW,209,1.0,4.0,-999,-99.99,,,-99.99,,2013-01-25 20:23:00,
2013-01-25 12:33:00,49.0,-99.9,30.03,SSW,200,2.0,4.0,-999,-99.99,,,-99.99,,2013-01-25 20:33:00,
2013-01-25 12:43:00,50.0,-99.9,30.02,South,181,3.0,5.0,-999,-99.99,,,-99.99,,2013-01-25 20:43:00,
2013-01-25 12:53:00,50.0,-99.9,30.02,SW,217,1.0,4.0,-999,-99.99,,,-99.99,,2013-01-25 20:53:00,
2013-01-25 13:02:00,49.0,-99.9,30.01,West,274,5.0,6.0,-999,-99.99,,,-99.99,,2013-01-25 21:02:00,
2013-01-25 13:12:00,49.0,-99.9,30.01,WNW,295,4.0,6.0,-999,-99.99,,,-99.99,,2013-01-25 21:12:00,
2013-01-25 13:23:00,49.0,-99.9,30.01,West,279,6.0,7.0,-999,-99.99,,,-99.99,,2013-01-25 21:23:00,
2013-01-25 13:33:00,49.0,-99.9,30.01,WSW,244,6.0,9.0,-999,-99.99,,,-99.99,,2013-01-25 21:33:00,
2013-01-25 13:43:00,49.0,-99.9,30.00,West,264,7.0,9.0,-999,-99.99,,,-99.99,,2013-01-25 21:43:00,
2013-01-25 13:52:00,49.0,-99.9,30.00,West,259,6.0,9.0,-999,-99.99,,,-99.99,,2013-01-25 21:52:00,
2013-01-25 14:03:00,49.0,-99.9,30.00,WSW,244,6.0,9.0,-999,-99.99,,,-99.99,,2013-01-25 22:03:00,
2013-01-25 14:12:00,49.0,-99.9,30.00,WSW,241,5.0,9.0,-999,-99.99,,,-99.99,,2013-01-25 22:12:00,
2013-01-25 14:23:00,50.0,-99.9,29.99,WSW,250,5.0,8.0,-999,-99.99,,,-99.99,,2013-01-25 22:23:00,
2013-01-25 14:33:00,51.0,-99.9,29.99,WSW,248,5.0,8.0,-999,-99.99,,,-99.99,,2013-01-25 22:33:00,
2013-01-25 14:42:00,49.0,-99.9,29.98,NW,308,3.0,5.0,-999,-99.99,,,-99.99,,2013-01-25 22:42:00,
2013-01-25 14:53:00,49.0,-99.9,29.98,WNW,301,4.0,5.0,-999,-99.99,,,-99.99,,2013-01-25 22:53:00,
2013-01-25 15:02:00,49.0,-99.9,29.98,NW,316,4.0,5.0,-999,-99.99,,,-99.99,,2013-01-25 23:02:00,
2013-01-25 15:12:00,49.0,-99.9,29.97,North,4,0.0,3.0,-999,-99.99,,,-99.99,,2013-01-25 23:12:00,
2013-01-25 15:22:00,50.0,-99.9,29.97,West,281,0.0,1.0,-999,-99.99,,,-99.99,,2013-01-25 23:22:00,
2013-01-25 15:32:00,51.0,-99.9,29.97,North,-999,-999.0,-999.0,-999,-99.99,,,-99.99,,2013-01-25 23:32:00,
2013-01-25 15:42:00,53.0,-99.9,29.97,South,174,-999.0,3.0,-999,-99.99,,,-99.99,,2013-01-25 23:42:00,
2013-01-25 15:53:00,53.0,-99.9,29.97,SSE,160,1.0,4.0,-999,-99.99,,,-99.99,,2013-01-25 23:53:00,
2013-01-25 16:02:00,53.0,-99.9,29.97,SW,225,4.0,6.0,-999,-99.99,,,-99.99,,2013-01-26 00:02:00,
2013-01-25 16:12:00,52.0,-99.9,29.97,SW,222,7.0,10.0,-999,-99.99,,,-99.99,,2013-01-26 00:12:00,
2013-01-25 16:22:00,52.0,-99.9,29.97,SSW,210,7.0,8.0,-999,-99.99,,,-99.99,,2013-01-26 00:22:00,
2013-01-25 16:33:00,51.0,-99.9,29.96,SW,222,4.0,6.0,-999,-99.99,,,-99.99,,2013-01-26 00:33:00,
2013-01-25 16:42:00,52.0,-99.9,29.96,SSW,198,3.0,4.0,-999,-99.99,,,-99.99,,2013-01-26 00:42:00,
2013-01-25 16:53:00,51.0,-99.9,29.96,SSW,208,4.0,6.0,-999,-99.99,,,-99.99,,2013-01-26 00:53:00,
2013-01-25 17:02:00,51.0,-99.9,29.96,SSE,168,2.0,7.0,-999,-99.99,,,-99.99,,2013-01-26 01:02:00,
2013-01-25 17:12:00,50.0,-99.9,29.96,SSE,163,4.0,6.0,-999,-99.99,,,-99.99,,2013-01-26 01:12:00,
2013-01-25 17:22:00,50.0,-99.9,29.96,South,188,2.0,6.0,-999,-99.99,,,-99.99,,2013-01-26 01:22:00,
2013-01-25 17:32:00,50.0,-99.9,29.96,SSW,203,5.0,6.0,-999,-99.99,,,-99.99,,2013-01-26 01:32:00,
2013-01-25 17:42:00,49.0,-99.9,29.96,SSW,210,5.0,7.0,-999,-99.99,,,-99.99,,2013-01-26 01:42:00,
2013-01-25 17:52:00,49.0,-99.9,29.96,South,171,4.0,5.0,-999,-99.99,,,-99.99,,2013-01-26 01:52:00,
2013-01-25 18:02:00,49.0,-99.9,29.96,South,169,5.0,7.0,-999,-99.99,,,-99.99,,2013-01-26 02:02:00,
2013-01-25 18:12:00,49.0,-99.9,29.96,SSE,166,4.0,6.0,-999,-99.99,,,-99.99,,2013-01-26 02:12:00,
2013-01-25 18:22:00,49.0,-99.9,29.96,South,174,3.0,6.0,-999,-99.99,,,-99.99,,2013-01-26 02:22:00,
2013-01-25 18:32:00,48.0,-99.9,29.96,South,169,5.0,6.0,-999,-99.99,,,-99.99,,2013-01-26 02:32:00,
2013-01-25 18:42:00,48.0,-99.9,29.96,SSE,163,5.0,7.0,-999,-99.99,,,-99.99,,2013-01-26 02:42:00,
2013-01-25 18:52:00,48.0,-99.9,29.96,SSE,167,5.0,7.0,-999,-99.99,,,-99.99,,2013-01-26 02:52:00,
2013-01-25 19:02:00,49.0,-99.9,29.96,SE,144,6.0,7.0,-999,-99.99,,,-99.99,,2013-01-26 03:02:00,
2013-01-25 19:12:00,49.0,-99.9,29.95,SE,142,5.0,7.0,-999,-99.99,,,-99.99,,2013-01-26 03:12:00,
2013-01-25 19:22:00,48.0,-99.9,29.95,South,173,4.0,6.0,-999,-99.99,,,-99.99,,2013-01-26 03:22:00,
2013-01-25 19:32:00,47.0,-99.9,29.95,SSE,161,4.0,6.0,-999,-99.99,,,-99.99,,2013-01-26 03:32:00,
2013-01-25 19:43:00,47.0,-99.9,29.95,SSE,158,4.0,6.0,-999,-99.99,,,-99.99,,2013-01-26 03:43:00,
2013-01-25 19:52:00,47.0,-99.9,29.96,SSE,156,4.0,7.0,-999,-99.99,,,-99.99,,2013-01-26 03:52:00,
2013-01-25 20:02:00,47.0,-99.9,29.96,SSE,152,5.0,8.0,-999,-99.99,,,-99.99,,2013-01-26 04:02:00,
2013-01-25 20:12:00,47.0,-99.9,29.95,South,175,3.0,5.0,-999,-99.99,,,-99.99,,2013-01-26 04:12:00,
2013-01-25 20:21:00,47.0,-99.9,29.95,South,184,3.0,5.0,-999,-99.99,,,-99.99,,2013-01-26 04:21:00,
2013-01-25 20:32:00,47.0,-99.9,29.95,SE,144,3.0,5.0,-999,-99.99,,,-99.99,,2013-01-26 04:32:00,
2013-01-25 20:43:00,47.0,-99.9,29.96,South,181,3.0,6.0,-999,-99.99,,,-99.99,,2013-01-26 04:43:00,
2013-01-25 20:52:00,47.0,-99.9,29.95,SSE,167,5.0,10.0,-999,-99.99,,,-99.99,,2013-01-26 04:52:00,
2013-01-25 21:03:00,47.0,-99.9,29.95,SE,140,2.0,4.0,-999,-99.99,,,-99.99,,2013-01-26 05:03:00,
2013-01-25 21:12:00,46.0,-99.9,29.95,South,191,2.0,3.0,-999,-99.99,,,-99.99,,2013-01-26 05:12:00,
2013-01-25 21:23:00,46.0,-99.9,29.95,SSW,196,4.0,6.0,-999,-99.99,,,-99.99,,2013-01-26 05:23:00,
2013-01-25 21:33:00,46.0,-99.9,29.95,South,180,1.0,6.0,-999,-99.99,,,-99.99,,2013-01-26 05:33:00,
2013-01-25 21:42:00,46.0,-99.9,29.94,SE,144,4.0,6.0,-999,-99.99,,,-99.99,,2013-01-26 05:42:00,
2013-01-25 21:53:00,46.0,-99.9,29.94,South,170,3.0,5.0,-999,-99.99,,,-99.99,,2013-01-26 05:53:00,
2013-01-25 22:03:00,46.0,-99.9,29.94,SSE,163,3.0,4.0,-999,-99.99,,,-99.99,,2013-01-26 06:03:00,
2013-01-25 22:12:00,45.0,-99.9,29.94,SSE,167,3.0,5.0,-999,-99.99,,,-99.99,,2013-01-26 06:12:00,
2013-01-25 22:21:00,45.0,-99.9,29.94,SSE,162,3.0,6.0,-999,-99.99,,,-99.99,,2013-01-26 06:21:00,
2013-01-25 22:32:00,45.0,-99.9,29.95,South,171,3.0,6.0,-999,-99.99,,,-99.99,,2013-01-26 06:32:00,
2013-01-25 22:42:00,45.0,-99.9,29.94,SSE,154,4.0,6.0,-999,-99.99,,,-99.99,,2013-01-26 06:42:00,
2013-01-25 22:52:00,45.0,-99.9,29.94,SSE,163,4.0,7.0,-999,-99.99,,,-99.99,,2013-01-26 06:52:00,
2013-01-25 23:02:00,45.0,-99.9,29.94,South,188,4.0,6.0,-999,-99.99,,,-99.99,,2013-01-26 07:02:00,
2013-01-25 23:12:00,45.0,-99.9,29.94,SSE,157,4.0,6.0,-999,-99.99,,,-99.99,,2013-01-26 07:12:00,
2013-01-25 23:22:00,45.0,-99.9,29.94,SSE,168,3.0,6.0,-999,-99.99,,,-99.99,,2013-01-26 07:22:00,
2013-01-25 23:33:00,45.0,-99.9,29.93,SSE,161,4.0,8.0,-999,-99.99,,,-99.99,,2013-01-26 07:33:00,
2013-01-25 23:42:00,45.0,-99.9,29.94,SSE,163,4.0,8.0,-999,-99.99,,,-99.99,,2013-01-26 07:42:00,
2013-01-25 23:52:00,44.0,-99.9,29.94,SSE,152,4.0,6.0,-999,-99.99,,,-99.99,,2013-01-26 07:52:00,